sensor_id;sensor_type;location;lat;lon;timestamp;temperature;humidity
24158;DHT22;12316;50.904;4.200;2023-04-07T00:00:17;11.10;99.90
24158;DHT22;12316;50.904;4.200;2023-04-07T00:02:43;11.10;99.90
24158;DHT22;12316;50.904;4.200;2023-04-07T00:05:09;11.20;99.90
24158;DHT22;12316;50.904;4.200;2023-04-07T00:07:34;11.20;99.90
24158;DHT22;12316;50.904;4.200;2023-04-07T00:10:00;11.20;99.90
24158;DHT22;12316;50.904;4.200;2023-04-07T00:12:26;11.40;99.90
24158;DHT22;12316;50.904;4.200;2023-04-07T00:14:51;11.10;99.90
24158;DHT22;12316;50.904;4.200;2023-04-07T00:17:17;11.10;99.90
24158;DHT22;12316;50.904;4.200;2023-04-07T00:19:42;11.30;99.90
24158;DHT22;12316;50.904;4.200;2023-04-07T00:22:08;11.10;99.90
24158;DHT22;12316;50.904;4.200;2023-04-07T00:24:34;11.30;99.90
24158;DHT22;12316;50.904;4.200;2023-04-07T00:27:00;11.20;99.90
24158;DHT22;12316;50.904;4.200;2023-04-07T00:29:25;11.30;99.90
24158;DHT22;12316;50.904;4.200;2023-04-07T00:31:51;11.20;99.90
24158;DHT22;12316;50.904;4.200;2023-04-07T00:34:17;11.20;99.90
24158;DHT22;12316;50.904;4.200;2023-04-07T00:36:42;11.10;99.90
24158;DHT22;12316;50.904;4.200;2023-04-07T00:39:08;11.10;99.90
24158;DHT22;12316;50.904;4.200;2023-04-07T00:41:34;11.20;99.90
24158;DHT22;12316;50.904;4.200;2023-04-07T00:44:00;11.10;99.90
24158;DHT22;12316;50.904;4.200;2023-04-07T00:46:26;11.00;99.90
24158;DHT22;12316;50.904;4.200;2023-04-07T00:48:52;11.10;99.90
24158;DHT22;12316;50.904;4.200;2023-04-07T00:51:21;11.10;99.90
24158;DHT22;12316;50.904;4.200;2023-04-07T00:53:48;11.10;99.90
24158;DHT22;12316;50.904;4.200;2023-04-07T00:56:13;11.00;99.90
24158;DHT22;12316;50.904;4.200;2023-04-07T00:58:39;11.00;99.90
24158;DHT22;12316;50.904;4.200;2023-04-07T01:01:12;11.10;99.90
24158;DHT22;12316;50.904;4.200;2023-04-07T01:03:55;11.00;99.90
24158;DHT22;12316;50.904;4.200;2023-04-07T01:06:25;11.00;99.90
24158;DHT22;12316;50.904;4.200;2023-04-07T01:09:01;10.90;99.90
24158;DHT22;12316;50.904;4.200;2023-04-07T01:11:46;10.90;99.90
24158;DHT22;12316;50.904;4.200;2023-04-07T01:14:15;10.80;99.90
24158;DHT22;12316;50.904;4.200;2023-04-07T01:16:45;10.80;99.90
24158;DHT22;12316;50.904;4.200;2023-04-07T01:19:39;10.80;99.90
24158;DHT22;12316;50.904;4.200;2023-04-07T01:22:13;10.80;99.90
24158;DHT22;12316;50.904;4.200;2023-04-07T01:25:01;10.80;99.90
24158;DHT22;12316;50.904;4.200;2023-04-07T01:30:15;10.60;99.90
24158;DHT22;12316;50.904;4.200;2023-04-07T01:32:44;10.60;99.90
24158;DHT22;12316;50.904;4.200;2023-04-07T01:35:12;10.50;99.90
24158;DHT22;12316;50.904;4.200;2023-04-07T01:37:39;10.50;99.90
24158;DHT22;12316;50.904;4.200;2023-04-07T01:40:06;10.60;99.90
24158;DHT22;12316;50.904;4.200;2023-04-07T01:42:33;10.40;99.90
24158;DHT22;12316;50.904;4.200;2023-04-07T01:45:00;10.50;99.90
24158;DHT22;12316;50.904;4.200;2023-04-07T01:47:27;10.50;99.90
24158;DHT22;12316;50.904;4.200;2023-04-07T01:49:57;10.50;99.90
24158;DHT22;12316;50.904;4.200;2023-04-07T01:52:26;10.60;99.90
24158;DHT22;12316;50.904;4.200;2023-04-07T01:54:53;10.50;99.90
24158;DHT22;12316;50.904;4.200;2023-04-07T01:57:19;10.50;99.90
24158;DHT22;12316;50.904;4.200;2023-04-07T01:59:45;10.50;99.90
24158;DHT22;12316;50.904;4.200;2023-04-07T02:02:11;10.50;99.90
24158;DHT22;12316;50.904;4.200;2023-04-07T02:07:58;10.50;99.90
24158;DHT22;12316;50.904;4.200;2023-04-07T02:10:27;10.60;99.90
24158;DHT22;12316;50.904;4.200;2023-04-07T02:12:54;10.50;99.90
24158;DHT22;12316;50.904;4.200;2023-04-07T02:15:21;10.50;99.90
24158;DHT22;12316;50.904;4.200;2023-04-07T02:17:50;10.50;99.90
24158;DHT22;12316;50.904;4.200;2023-04-07T02:20:17;10.60;99.90
24158;DHT22;12316;50.904;4.200;2023-04-07T02:22:43;10.40;99.90
24158;DHT22;12316;50.904;4.200;2023-04-07T02:27:50;10.40;99.90
24158;DHT22;12316;50.904;4.200;2023-04-07T02:30:17;10.50;99.90
24158;DHT22;12316;50.904;4.200;2023-04-07T02:32:43;10.30;99.90
24158;DHT22;12316;50.904;4.200;2023-04-07T02:35:09;10.40;99.90
24158;DHT22;12316;50.904;4.200;2023-04-07T02:37:36;10.30;99.90
24158;DHT22;12316;50.904;4.200;2023-04-07T02:40:03;10.30;99.90
24158;DHT22;12316;50.904;4.200;2023-04-07T02:42:29;10.20;99.90
24158;DHT22;12316;50.904;4.200;2023-04-07T02:44:54;10.30;99.90
24158;DHT22;12316;50.904;4.200;2023-04-07T02:47:20;10.20;99.90
24158;DHT22;12316;50.904;4.200;2023-04-07T02:49:46;10.30;99.90
24158;DHT22;12316;50.904;4.200;2023-04-07T02:52:12;10.20;99.90
24158;DHT22;12316;50.904;4.200;2023-04-07T02:54:37;10.00;99.90
24158;DHT22;12316;50.904;4.200;2023-04-07T02:57:03;10.10;99.90
24158;DHT22;12316;50.904;4.200;2023-04-07T02:59:29;9.90;99.90
24158;DHT22;12316;50.904;4.200;2023-04-07T03:01:54;9.90;99.90
24158;DHT22;12316;50.904;4.200;2023-04-07T03:04:21;9.90;99.90
24158;DHT22;12316;50.904;4.200;2023-04-07T03:06:46;9.90;99.90
24158;DHT22;12316;50.904;4.200;2023-04-07T03:09:12;9.90;99.90
24158;DHT22;12316;50.904;4.200;2023-04-07T03:11:38;9.80;99.90
24158;DHT22;12316;50.904;4.200;2023-04-07T03:14:03;9.90;99.90
24158;DHT22;12316;50.904;4.200;2023-04-07T03:16:29;9.80;99.90
24158;DHT22;12316;50.904;4.200;2023-04-07T03:18:54;9.90;99.90
24158;DHT22;12316;50.904;4.200;2023-04-07T03:21:20;10.00;99.90
24158;DHT22;12316;50.904;4.200;2023-04-07T03:23:45;9.80;99.90
24158;DHT22;12316;50.904;4.200;2023-04-07T03:26:11;9.80;99.90
24158;DHT22;12316;50.904;4.200;2023-04-07T03:28:37;9.70;99.90
24158;DHT22;12316;50.904;4.200;2023-04-07T03:31:02;9.80;99.90
24158;DHT22;12316;50.904;4.200;2023-04-07T03:33:28;9.70;99.90
24158;DHT22;12316;50.904;4.200;2023-04-07T03:35:53;9.70;99.90
24158;DHT22;12316;50.904;4.200;2023-04-07T03:38:19;9.80;99.90
24158;DHT22;12316;50.904;4.200;2023-04-07T03:40:45;9.90;99.90
24158;DHT22;12316;50.904;4.200;2023-04-07T03:43:11;9.80;99.90
24158;DHT22;12316;50.904;4.200;2023-04-07T03:45:40;9.80;99.90
24158;DHT22;12316;50.904;4.200;2023-04-07T03:48:06;9.80;99.90
24158;DHT22;12316;50.904;4.200;2023-04-07T03:50:35;9.80;99.90
24158;DHT22;12316;50.904;4.200;2023-04-07T03:53:00;9.90;99.90
24158;DHT22;12316;50.904;4.200;2023-04-07T03:55:26;9.80;99.90
24158;DHT22;12316;50.904;4.200;2023-04-07T03:57:52;9.90;99.90
24158;DHT22;12316;50.904;4.200;2023-04-07T04:00:17;9.80;99.90
24158;DHT22;12316;50.904;4.200;2023-04-07T04:02:43;9.80;99.90
24158;DHT22;12316;50.904;4.200;2023-04-07T04:05:09;10.00;99.90
24158;DHT22;12316;50.904;4.200;2023-04-07T04:07:35;10.00;99.90
24158;DHT22;12316;50.904;4.200;2023-04-07T04:10:00;9.90;99.90
24158;DHT22;12316;50.904;4.200;2023-04-07T04:12:26;9.90;99.90
24158;DHT22;12316;50.904;4.200;2023-04-07T04:14:51;10.00;99.90
24158;DHT22;12316;50.904;4.200;2023-04-07T04:17:17;10.00;99.90
24158;DHT22;12316;50.904;4.200;2023-04-07T04:19:43;9.90;99.90
24158;DHT22;12316;50.904;4.200;2023-04-07T04:22:08;10.00;99.90
24158;DHT22;12316;50.904;4.200;2023-04-07T04:24:34;9.90;99.90
24158;DHT22;12316;50.904;4.200;2023-04-07T04:27:00;9.90;99.90
24158;DHT22;12316;50.904;4.200;2023-04-07T04:29:26;9.90;99.90
24158;DHT22;12316;50.904;4.200;2023-04-07T04:31:52;9.90;99.90
24158;DHT22;12316;50.904;4.200;2023-04-07T04:34:17;9.90;99.90
24158;DHT22;12316;50.904;4.200;2023-04-07T04:36:43;9.90;99.90
24158;DHT22;12316;50.904;4.200;2023-04-07T04:39:08;9.90;99.90
24158;DHT22;12316;50.904;4.200;2023-04-07T04:41:34;10.00;99.90
24158;DHT22;12316;50.904;4.200;2023-04-07T04:44:00;9.90;99.90
24158;DHT22;12316;50.904;4.200;2023-04-07T04:46:25;9.90;99.90
24158;DHT22;12316;50.904;4.200;2023-04-07T04:48:51;9.90;99.90
24158;DHT22;12316;50.904;4.200;2023-04-07T04:51:18;9.90;99.90
24158;DHT22;12316;50.904;4.200;2023-04-07T04:53:44;9.80;99.90
24158;DHT22;12316;50.904;4.200;2023-04-07T04:56:10;9.80;99.90
24158;DHT22;12316;50.904;4.200;2023-04-07T04:58:36;9.80;99.90
24158;DHT22;12316;50.904;4.200;2023-04-07T05:01:04;9.80;99.90
24158;DHT22;12316;50.904;4.200;2023-04-07T05:03:30;9.80;99.90
24158;DHT22;12316;50.904;4.200;2023-04-07T05:05:56;9.80;99.90
24158;DHT22;12316;50.904;4.200;2023-04-07T05:08:21;9.90;99.90
24158;DHT22;12316;50.904;4.200;2023-04-07T05:10:47;9.70;99.90
24158;DHT22;12316;50.904;4.200;2023-04-07T05:13:13;9.60;99.90
24158;DHT22;12316;50.904;4.200;2023-04-07T05:15:40;9.70;99.90
24158;DHT22;12316;50.904;4.200;2023-04-07T05:18:06;9.60;99.90
24158;DHT22;12316;50.904;4.200;2023-04-07T05:20:31;9.60;99.90
24158;DHT22;12316;50.904;4.200;2023-04-07T05:22:57;9.60;99.90
24158;DHT22;12316;50.904;4.200;2023-04-07T05:25:22;9.70;99.90
24158;DHT22;12316;50.904;4.200;2023-04-07T05:27:48;9.50;99.90
24158;DHT22;12316;50.904;4.200;2023-04-07T05:30:14;9.50;99.90
24158;DHT22;12316;50.904;4.200;2023-04-07T05:32:40;9.50;99.90
24158;DHT22;12316;50.904;4.200;2023-04-07T05:35:07;9.60;99.90
24158;DHT22;12316;50.904;4.200;2023-04-07T05:37:33;9.50;99.90
24158;DHT22;12316;50.904;4.200;2023-04-07T05:39:58;9.60;99.90
24158;DHT22;12316;50.904;4.200;2023-04-07T05:42:24;9.50;99.90
24158;DHT22;12316;50.904;4.200;2023-04-07T05:44:49;9.50;99.90
24158;DHT22;12316;50.904;4.200;2023-04-07T05:47:16;9.50;99.90
24158;DHT22;12316;50.904;4.200;2023-04-07T05:49:41;9.40;99.90
24158;DHT22;12316;50.904;4.200;2023-04-07T05:52:12;9.50;99.90
24158;DHT22;12316;50.904;4.200;2023-04-07T05:54:38;9.40;99.90
24158;DHT22;12316;50.904;4.200;2023-04-07T05:57:05;9.40;99.90
24158;DHT22;12316;50.904;4.200;2023-04-07T05:59:32;9.40;99.90
24158;DHT22;12316;50.904;4.200;2023-04-07T06:01:57;9.40;99.90
24158;DHT22;12316;50.904;4.200;2023-04-07T06:04:23;9.50;99.90
24158;DHT22;12316;50.904;4.200;2023-04-07T06:06:49;9.60;99.90
24158;DHT22;12316;50.904;4.200;2023-04-07T06:09:14;9.70;99.90
24158;DHT22;12316;50.904;4.200;2023-04-07T06:11:40;9.70;99.90
24158;DHT22;12316;50.904;4.200;2023-04-07T06:14:05;9.80;99.90
24158;DHT22;12316;50.904;4.200;2023-04-07T06:16:31;9.70;99.90
24158;DHT22;12316;50.904;4.200;2023-04-07T06:18:56;9.80;99.90
24158;DHT22;12316;50.904;4.200;2023-04-07T06:21:22;9.90;99.90
24158;DHT22;12316;50.904;4.200;2023-04-07T06:23:49;9.90;99.90
24158;DHT22;12316;50.904;4.200;2023-04-07T06:26:14;10.00;99.90
24158;DHT22;12316;50.904;4.200;2023-04-07T06:28:40;10.00;99.90
24158;DHT22;12316;50.904;4.200;2023-04-07T06:31:06;10.00;99.90
24158;DHT22;12316;50.904;4.200;2023-04-07T06:33:32;10.10;99.90
24158;DHT22;12316;50.904;4.200;2023-04-07T06:35:58;10.30;99.90
24158;DHT22;12316;50.904;4.200;2023-04-07T06:38:24;10.40;99.90
24158;DHT22;12316;50.904;4.200;2023-04-07T06:40:50;10.50;99.90
24158;DHT22;12316;50.904;4.200;2023-04-07T06:43:16;10.60;99.90
24158;DHT22;12316;50.904;4.200;2023-04-07T06:45:41;10.50;99.90
24158;DHT22;12316;50.904;4.200;2023-04-07T06:48:07;10.20;99.90
24158;DHT22;12316;50.904;4.200;2023-04-07T06:50:35;10.40;99.90
24158;DHT22;12316;50.904;4.200;2023-04-07T06:53:02;10.40;99.90
24158;DHT22;12316;50.904;4.200;2023-04-07T06:55:28;10.20;99.90
24158;DHT22;12316;50.904;4.200;2023-04-07T06:57:53;10.20;99.90
24158;DHT22;12316;50.904;4.200;2023-04-07T07:00:19;10.20;99.90
24158;DHT22;12316;50.904;4.200;2023-04-07T07:02:47;10.20;99.90
24158;DHT22;12316;50.904;4.200;2023-04-07T07:05:13;10.40;99.90
24158;DHT22;12316;50.904;4.200;2023-04-07T07:07:38;10.50;99.90
24158;DHT22;12316;50.904;4.200;2023-04-07T07:10:05;10.80;99.90
24158;DHT22;12316;50.904;4.200;2023-04-07T07:12:31;10.90;99.90
24158;DHT22;12316;50.904;4.200;2023-04-07T07:14:57;11.00;99.90
24158;DHT22;12316;50.904;4.200;2023-04-07T07:17:23;11.10;99.90
24158;DHT22;12316;50.904;4.200;2023-04-07T07:19:48;10.80;99.90
24158;DHT22;12316;50.904;4.200;2023-04-07T07:22:14;10.70;99.90
24158;DHT22;12316;50.904;4.200;2023-04-07T07:24:40;10.70;99.90
24158;DHT22;12316;50.904;4.200;2023-04-07T07:27:05;10.80;99.90
24158;DHT22;12316;50.904;4.200;2023-04-07T07:29:31;10.80;99.90
24158;DHT22;12316;50.904;4.200;2023-04-07T07:31:57;10.80;99.90
24158;DHT22;12316;50.904;4.200;2023-04-07T07:34:22;10.70;99.90
24158;DHT22;12316;50.904;4.200;2023-04-07T07:36:48;11.00;99.90
24158;DHT22;12316;50.904;4.200;2023-04-07T07:39:13;10.90;99.90
24158;DHT22;12316;50.904;4.200;2023-04-07T07:41:39;10.80;99.90
24158;DHT22;12316;50.904;4.200;2023-04-07T07:44:06;10.80;99.90
24158;DHT22;12316;50.904;4.200;2023-04-07T07:46:31;10.80;99.90
24158;DHT22;12316;50.904;4.200;2023-04-07T07:48:57;10.90;99.90
24158;DHT22;12316;50.904;4.200;2023-04-07T07:51:23;10.80;99.90
24158;DHT22;12316;50.904;4.200;2023-04-07T07:53:48;10.80;99.90
24158;DHT22;12316;50.904;4.200;2023-04-07T07:56:14;10.80;99.90
24158;DHT22;12316;50.904;4.200;2023-04-07T07:58:40;10.90;99.90
24158;DHT22;12316;50.904;4.200;2023-04-07T08:01:06;10.90;99.90
24158;DHT22;12316;50.904;4.200;2023-04-07T08:03:31;10.90;99.90
24158;DHT22;12316;50.904;4.200;2023-04-07T08:05:57;11.00;99.90
24158;DHT22;12316;50.904;4.200;2023-04-07T08:08:23;10.90;99.90
24158;DHT22;12316;50.904;4.200;2023-04-07T08:10:48;10.90;99.90
24158;DHT22;12316;50.904;4.200;2023-04-07T08:13:14;10.80;99.90
24158;DHT22;12316;50.904;4.200;2023-04-07T08:15:40;10.90;99.90
24158;DHT22;12316;50.904;4.200;2023-04-07T08:18:06;11.00;99.90
24158;DHT22;12316;50.904;4.200;2023-04-07T08:20:32;10.90;99.90
24158;DHT22;12316;50.904;4.200;2023-04-07T08:22:58;11.00;99.90
24158;DHT22;12316;50.904;4.200;2023-04-07T08:25:27;11.10;99.90
24158;DHT22;12316;50.904;4.200;2023-04-07T08:27:53;11.00;99.90
24158;DHT22;12316;50.904;4.200;2023-04-07T08:30:18;11.30;99.90
24158;DHT22;12316;50.904;4.200;2023-04-07T08:32:45;11.20;99.90
24158;DHT22;12316;50.904;4.200;2023-04-07T08:35:11;11.30;99.90
24158;DHT22;12316;50.904;4.200;2023-04-07T08:37:38;11.10;99.90
24158;DHT22;12316;50.904;4.200;2023-04-07T08:40:05;11.40;99.90
24158;DHT22;12316;50.904;4.200;2023-04-07T08:42:33;11.10;99.90
24158;DHT22;12316;50.904;4.200;2023-04-07T08:45:04;11.20;99.90
24158;DHT22;12316;50.904;4.200;2023-04-07T08:47:32;11.30;99.90
24158;DHT22;12316;50.904;4.200;2023-04-07T08:50:06;11.50;99.90
24158;DHT22;12316;50.904;4.200;2023-04-07T08:55:03;12.00;99.90
24158;DHT22;12316;50.904;4.200;2023-04-07T08:57:32;12.30;99.90
24158;DHT22;12316;50.904;4.200;2023-04-07T08:59:59;12.60;99.90
24158;DHT22;12316;50.904;4.200;2023-04-07T09:02:32;12.70;99.90
24158;DHT22;12316;50.904;4.200;2023-04-07T09:04:58;12.70;99.90
24158;DHT22;12316;50.904;4.200;2023-04-07T09:07:24;13.00;99.90
24158;DHT22;12316;50.904;4.200;2023-04-07T09:09:50;13.10;99.90
24158;DHT22;12316;50.904;4.200;2023-04-07T09:12:15;13.20;99.90
24158;DHT22;12316;50.904;4.200;2023-04-07T09:14:41;12.90;99.90
24158;DHT22;12316;50.904;4.200;2023-04-07T09:17:07;12.90;99.90
24158;DHT22;12316;50.904;4.200;2023-04-07T09:19:32;12.60;99.90
24158;DHT22;12316;50.904;4.200;2023-04-07T09:21:58;12.60;99.90
24158;DHT22;12316;50.904;4.200;2023-04-07T09:24:28;12.70;99.90
24158;DHT22;12316;50.904;4.200;2023-04-07T09:27:16;12.60;99.90
24158;DHT22;12316;50.904;4.200;2023-04-07T09:29:44;12.50;99.90
24158;DHT22;12316;50.904;4.200;2023-04-07T09:32:10;12.50;99.90
24158;DHT22;12316;50.904;4.200;2023-04-07T09:34:39;12.50;99.90
24158;DHT22;12316;50.904;4.200;2023-04-07T09:37:06;12.50;99.90
24158;DHT22;12316;50.904;4.200;2023-04-07T09:39:53;12.70;99.90
24158;DHT22;12316;50.904;4.200;2023-04-07T09:42:19;13.10;99.90
24158;DHT22;12316;50.904;4.200;2023-04-07T09:44:45;13.20;99.90
24158;DHT22;12316;50.904;4.200;2023-04-07T09:47:11;13.50;99.90
24158;DHT22;12316;50.904;4.200;2023-04-07T09:49:54;13.70;99.90
24158;DHT22;12316;50.904;4.200;2023-04-07T09:55:17;13.40;99.90
24158;DHT22;12316;50.904;4.200;2023-04-07T09:57:45;13.20;99.90
24158;DHT22;12316;50.904;4.200;2023-04-07T10:00:12;12.90;99.90
24158;DHT22;12316;50.904;4.200;2023-04-07T10:02:38;12.60;99.90
24158;DHT22;12316;50.904;4.200;2023-04-07T10:05:04;12.20;99.90
24158;DHT22;12316;50.904;4.200;2023-04-07T10:07:30;12.00;99.90
24158;DHT22;12316;50.904;4.200;2023-04-07T10:09:56;11.80;99.90
24158;DHT22;12316;50.904;4.200;2023-04-07T10:12:22;11.80;99.90
24158;DHT22;12316;50.904;4.200;2023-04-07T10:14:49;11.70;99.90
24158;DHT22;12316;50.904;4.200;2023-04-07T10:17:17;11.80;99.90
24158;DHT22;12316;50.904;4.200;2023-04-07T10:19:46;11.80;99.90
24158;DHT22;12316;50.904;4.200;2023-04-07T10:22:13;12.10;99.90
24158;DHT22;12316;50.904;4.200;2023-04-07T10:25:07;12.20;99.90
24158;DHT22;12316;50.904;4.200;2023-04-07T10:30:22;12.30;99.90
24158;DHT22;12316;50.904;4.200;2023-04-07T10:32:50;12.50;99.90
24158;DHT22;12316;50.904;4.200;2023-04-07T10:35:17;12.60;99.90
24158;DHT22;12316;50.904;4.200;2023-04-07T10:40:38;13.20;99.90
24158;DHT22;12316;50.904;4.200;2023-04-07T10:43:05;13.40;99.90
24158;DHT22;12316;50.904;4.200;2023-04-07T10:48:15;14.00;99.90
24158;DHT22;12316;50.904;4.200;2023-04-07T10:50:41;13.90;99.90
24158;DHT22;12316;50.904;4.200;2023-04-07T10:53:07;13.70;99.90
24158;DHT22;12316;50.904;4.200;2023-04-07T10:55:44;13.30;99.90
24158;DHT22;12316;50.904;4.200;2023-04-07T10:58:16;12.90;99.90
24158;DHT22;12316;50.904;4.200;2023-04-07T11:03:35;12.50;99.90
24158;DHT22;12316;50.904;4.200;2023-04-07T11:06:12;12.40;99.90
24158;DHT22;12316;50.904;4.200;2023-04-07T11:11:09;12.10;99.90
24158;DHT22;12316;50.904;4.200;2023-04-07T11:13:43;12.20;99.90
24158;DHT22;12316;50.904;4.200;2023-04-07T11:16:09;12.20;99.90
24158;DHT22;12316;50.904;4.200;2023-04-07T11:18:36;12.30;99.90
24158;DHT22;12316;50.904;4.200;2023-04-07T11:21:02;12.50;99.90
24158;DHT22;12316;50.904;4.200;2023-04-07T11:23:40;12.60;99.90
24158;DHT22;12316;50.904;4.200;2023-04-07T11:26:08;12.70;99.90
24158;DHT22;12316;50.904;4.200;2023-04-07T11:28:43;12.90;99.90
24158;DHT22;12316;50.904;4.200;2023-04-07T11:31:10;13.10;99.90
24158;DHT22;12316;50.904;4.200;2023-04-07T11:33:36;13.20;99.90
24158;DHT22;12316;50.904;4.200;2023-04-07T11:36:04;13.20;99.90
24158;DHT22;12316;50.904;4.200;2023-04-07T11:38:35;13.30;99.90
24158;DHT22;12316;50.904;4.200;2023-04-07T11:41:13;13.40;99.90
24158;DHT22;12316;50.904;4.200;2023-04-07T11:43:40;13.40;99.90
24158;DHT22;12316;50.904;4.200;2023-04-07T11:46:14;13.40;99.90
24158;DHT22;12316;50.904;4.200;2023-04-07T11:48:42;13.20;99.90
24158;DHT22;12316;50.904;4.200;2023-04-07T11:51:19;13.30;99.90
24158;DHT22;12316;50.904;4.200;2023-04-07T11:53:45;13.10;99.90
24158;DHT22;12316;50.904;4.200;2023-04-07T11:56:14;13.10;99.90
24158;DHT22;12316;50.904;4.200;2023-04-07T11:58:53;12.90;99.90
24158;DHT22;12316;50.904;4.200;2023-04-07T12:01:19;12.80;99.90
24158;DHT22;12316;50.904;4.200;2023-04-07T12:04:00;12.70;99.90
24158;DHT22;12316;50.904;4.200;2023-04-07T12:06:34;12.60;99.90
24158;DHT22;12316;50.904;4.200;2023-04-07T12:09:01;12.80;99.90
24158;DHT22;12316;50.904;4.200;2023-04-07T12:11:27;12.60;99.90
24158;DHT22;12316;50.904;4.200;2023-04-07T12:13:54;12.50;99.90
24158;DHT22;12316;50.904;4.200;2023-04-07T12:16:19;12.60;99.90
24158;DHT22;12316;50.904;4.200;2023-04-07T12:18:46;12.60;99.90
24158;DHT22;12316;50.904;4.200;2023-04-07T12:21:12;12.50;99.90
24158;DHT22;12316;50.904;4.200;2023-04-07T12:23:37;12.20;99.90
24158;DHT22;12316;50.904;4.200;2023-04-07T12:26:03;12.00;99.90
24158;DHT22;12316;50.904;4.200;2023-04-07T12:28:29;12.00;99.90
24158;DHT22;12316;50.904;4.200;2023-04-07T12:30:55;12.10;99.90
24158;DHT22;12316;50.904;4.200;2023-04-07T12:33:20;12.10;99.90
24158;DHT22;12316;50.904;4.200;2023-04-07T12:35:46;12.20;99.90
24158;DHT22;12316;50.904;4.200;2023-04-07T12:38:12;12.40;99.90
24158;DHT22;12316;50.904;4.200;2023-04-07T12:40:38;12.60;99.90
24158;DHT22;12316;50.904;4.200;2023-04-07T12:43:05;12.60;99.90
24158;DHT22;12316;50.904;4.200;2023-04-07T12:45:31;12.60;99.90
24158;DHT22;12316;50.904;4.200;2023-04-07T12:47:57;12.60;99.90
24158;DHT22;12316;50.904;4.200;2023-04-07T12:50:23;12.40;99.90
24158;DHT22;12316;50.904;4.200;2023-04-07T12:52:50;12.50;99.90
24158;DHT22;12316;50.904;4.200;2023-04-07T12:55:16;12.60;99.90
24158;DHT22;12316;50.904;4.200;2023-04-07T12:57:42;12.60;99.90
24158;DHT22;12316;50.904;4.200;2023-04-07T13:00:08;12.60;99.90
24158;DHT22;12316;50.904;4.200;2023-04-07T13:02:34;12.50;99.90
24158;DHT22;12316;50.904;4.200;2023-04-07T13:05:02;12.40;99.90
24158;DHT22;12316;50.904;4.200;2023-04-07T13:07:28;12.40;99.90
24158;DHT22;12316;50.904;4.200;2023-04-07T13:09:53;12.30;99.90
24158;DHT22;12316;50.904;4.200;2023-04-07T13:12:19;12.50;99.90
24158;DHT22;12316;50.904;4.200;2023-04-07T13:14:45;12.50;99.90
24158;DHT22;12316;50.904;4.200;2023-04-07T13:17:11;12.50;99.90
24158;DHT22;12316;50.904;4.200;2023-04-07T13:19:36;12.80;99.90
24158;DHT22;12316;50.904;4.200;2023-04-07T13:22:02;13.00;99.90
24158;DHT22;12316;50.904;4.200;2023-04-07T13:24:28;13.00;99.90
24158;DHT22;12316;50.904;4.200;2023-04-07T13:26:54;13.00;99.90
24158;DHT22;12316;50.904;4.200;2023-04-07T13:29:20;13.10;99.90
24158;DHT22;12316;50.904;4.200;2023-04-07T13:31:46;13.00;99.90
24158;DHT22;12316;50.904;4.200;2023-04-07T13:34:13;13.00;99.90
24158;DHT22;12316;50.904;4.200;2023-04-07T13:36:39;12.70;99.90
24158;DHT22;12316;50.904;4.200;2023-04-07T13:39:05;12.60;99.90
24158;DHT22;12316;50.904;4.200;2023-04-07T13:41:31;12.40;99.90
24158;DHT22;12316;50.904;4.200;2023-04-07T13:43:56;12.20;99.90
24158;DHT22;12316;50.904;4.200;2023-04-07T13:46:23;12.00;99.90
24158;DHT22;12316;50.904;4.200;2023-04-07T13:48:49;12.00;99.90
24158;DHT22;12316;50.904;4.200;2023-04-07T13:51:15;11.90;99.90
24158;DHT22;12316;50.904;4.200;2023-04-07T13:53:41;11.90;99.90
24158;DHT22;12316;50.904;4.200;2023-04-07T13:56:07;12.10;99.90
24158;DHT22;12316;50.904;4.200;2023-04-07T13:58:34;12.30;99.90
24158;DHT22;12316;50.904;4.200;2023-04-07T14:01:00;12.30;99.90
24158;DHT22;12316;50.904;4.200;2023-04-07T14:03:26;12.30;99.90
24158;DHT22;12316;50.904;4.200;2023-04-07T14:05:52;12.20;99.90
24158;DHT22;12316;50.904;4.200;2023-04-07T14:08:19;12.10;99.90
24158;DHT22;12316;50.904;4.200;2023-04-07T14:10:46;12.10;99.90
24158;DHT22;12316;50.904;4.200;2023-04-07T14:13:12;12.00;99.90
24158;DHT22;12316;50.904;4.200;2023-04-07T14:15:37;12.10;99.90
24158;DHT22;12316;50.904;4.200;2023-04-07T14:18:03;12.30;99.90
24158;DHT22;12316;50.904;4.200;2023-04-07T14:20:29;12.20;99.90
24158;DHT22;12316;50.904;4.200;2023-04-07T14:22:54;12.20;99.90
24158;DHT22;12316;50.904;4.200;2023-04-07T14:25:20;12.10;99.90
24158;DHT22;12316;50.904;4.200;2023-04-07T14:27:46;12.10;99.90
24158;DHT22;12316;50.904;4.200;2023-04-07T14:30:12;12.10;99.90
24158;DHT22;12316;50.904;4.200;2023-04-07T14:32:38;12.20;99.90
24158;DHT22;12316;50.904;4.200;2023-04-07T14:35:03;12.20;99.90
24158;DHT22;12316;50.904;4.200;2023-04-07T14:37:29;12.20;99.90
24158;DHT22;12316;50.904;4.200;2023-04-07T14:39:55;12.30;99.90
24158;DHT22;12316;50.904;4.200;2023-04-07T14:42:21;12.40;99.90
24158;DHT22;12316;50.904;4.200;2023-04-07T14:44:46;12.30;99.90
24158;DHT22;12316;50.904;4.200;2023-04-07T14:47:12;12.30;99.90
24158;DHT22;12316;50.904;4.200;2023-04-07T14:49:38;12.30;99.90
24158;DHT22;12316;50.904;4.200;2023-04-07T14:52:04;12.30;99.90
24158;DHT22;12316;50.904;4.200;2023-04-07T14:54:29;12.30;99.90
24158;DHT22;12316;50.904;4.200;2023-04-07T14:56:55;12.40;99.90
24158;DHT22;12316;50.904;4.200;2023-04-07T14:59:20;12.30;99.90
24158;DHT22;12316;50.904;4.200;2023-04-07T15:01:46;12.40;99.90
24158;DHT22;12316;50.904;4.200;2023-04-07T15:04:12;12.60;99.90
24158;DHT22;12316;50.904;4.200;2023-04-07T15:06:41;12.50;99.90
24158;DHT22;12316;50.904;4.200;2023-04-07T15:09:07;12.60;99.90
24158;DHT22;12316;50.904;4.200;2023-04-07T15:11:33;12.60;99.90
24158;DHT22;12316;50.904;4.200;2023-04-07T15:13:59;12.80;99.90
24158;DHT22;12316;50.904;4.200;2023-04-07T15:16:25;12.60;99.90
24158;DHT22;12316;50.904;4.200;2023-04-07T15:18:51;12.60;99.90
24158;DHT22;12316;50.904;4.200;2023-04-07T15:21:17;12.40;99.90
24158;DHT22;12316;50.904;4.200;2023-04-07T15:23:43;12.40;99.90
24158;DHT22;12316;50.904;4.200;2023-04-07T15:26:10;12.30;99.90
24158;DHT22;12316;50.904;4.200;2023-04-07T15:28:36;12.20;99.90
24158;DHT22;12316;50.904;4.200;2023-04-07T15:31:02;12.10;99.90
24158;DHT22;12316;50.904;4.200;2023-04-07T15:33:33;12.00;99.90
24158;DHT22;12316;50.904;4.200;2023-04-07T15:35:58;11.90;99.90
24158;DHT22;12316;50.904;4.200;2023-04-07T15:38:27;11.80;99.90
24158;DHT22;12316;50.904;4.200;2023-04-07T15:40:53;11.80;99.90
24158;DHT22;12316;50.904;4.200;2023-04-07T15:43:19;11.90;99.90
24158;DHT22;12316;50.904;4.200;2023-04-07T15:45:44;11.80;99.90
24158;DHT22;12316;50.904;4.200;2023-04-07T15:48:11;11.80;99.90
24158;DHT22;12316;50.904;4.200;2023-04-07T15:50:36;11.80;99.90
24158;DHT22;12316;50.904;4.200;2023-04-07T15:53:02;11.80;99.90
24158;DHT22;12316;50.904;4.200;2023-04-07T15:55:35;11.90;99.90
24158;DHT22;12316;50.904;4.200;2023-04-07T15:58:01;12.00;99.90
24158;DHT22;12316;50.904;4.200;2023-04-07T16:00:29;11.90;99.90